Nearby METAR Reports

 

KHIF - Hill Afb/Ogden, Utah, USA
Distance from station: ENE 6mi, 9km
Updated: Mon, 06-Jul-2020 3:58pm MDT
Clear
Clear
 Wind from WNW
Wind: WNW 6 mph , 9 km/h
Temperature: 91°F , 33°C
Dew Point: 39°F , 4°C
Humidity: 16%
Barometer: 29.99 inHg , 1015.6 hPa
Clouds: Clear
Visibility: 10 miles , 16 km
2020/07/06 21:58 KHIF 062158Z AUTO 30005KT 10SM CLR 33/04 A2999 RMK AO2 SLP091 T03300038
KOGD - Ogden, Utah, USA
Distance from station: NNE 9mi, 14km
Updated: Mon, 06-Jul-2020 3:53pm MDT
Clear
Clear
 Wind from varies
Wind: varies 3 mph , 6 km/h
Temperature: 95°F , 35°C
Dew Point: 37°F , 3°C
Humidity: 13%
Barometer: 29.96 inHg , 1014.6 hPa
Clouds: Clear
Visibility: 10 miles , 16 km
2020/07/06 21:53 KOGD 062153Z AUTO VRB03KT 10SM CLR 35/03 A2996 RMK AO2 SLP076 T03500028
 
KSLC - Salt Lake City, Utah, USA
Distance from station: SSE 21mi, 34km
Updated: Mon, 06-Jul-2020 3:54pm MDT
Few Clouds
Few Clouds
 Wind from N
Wind: N 12 mph , 19 km/h
Temperature: 97°F , 36°C
Dew Point: 41°F , 5°C
Humidity: 14%
Barometer: 29.92 inHg , 1013.2 hPa
Clouds: Few Clouds
Visibility: 10 miles , 16 km
Cloud details: Few Clouds 11000 ft
2020/07/06 21:54 KSLC 062154Z 35010KT 10SM FEW110 36/05 A2992 RMK AO2 SLP069 TCU DSNT NW T03560050
KLGU - Logan, Utah, USA
Distance from station: NNE 50mi, 80km
Updated: Mon, 06-Jul-2020 3:51pm MDT
Clear
Clear
 Wind from NNW
Wind: NNW 7 mph , 11 km/h
Temperature: 91°F , 33°C
Dew Point: 36°F , 2°C
Humidity: 14%
Barometer: 29.97 inHg , 1014.9 hPa
Clouds: Clear
Visibility: 10 miles , 16 km
2020/07/06 21:51 KLGU 062151Z AUTO 33006KT 10SM CLR 33/02 A2997 RMK AO2 SLP091 T03330022
 
K36U - Heber/Russ Mcdon, Utah, USA
Distance from station: SE 53mi, 85km
Updated: Wed, 11-Oct-2017 6:50pm MDT
NOT Current
Clear
Clear
 Wind from SSW
Wind: SSW 10 mph , 17 km/h, Gust: 18 mph , 30 km/h
Temperature: 63°F , 17°C
Dew Point: 16°F , -9°C
Humidity: 16%
Barometer: 29.87 inHg , 1011.5 hPa
Clouds: Clear
Visibility: 10 miles , 16 km
2017/10/12 00:50 K36U 120050Z AUTO 21009G16KT 10SM CLR 17/M09 A2987 RMK AO2
KEVW - Evanston, Wyoming, USA
Distance from station: ENE 55mi, 89km
Updated: Mon, 06-Jul-2020 3:53pm MDT
Clear
Clear
 Wind from WSW
Wind: WSW 24 mph , 39 km/h, Gust: 32 mph , 52 km/h
Temperature: 84°F , 29°C
Dew Point: 27°F , -3°C
Humidity: 12%
Barometer: 30.17 inHg , 1021.7 hPa
Clouds: Clear
Visibility: 10 miles , 16 km
2020/07/06 21:53 KEVW 062153Z AUTO 25021G28KT 10SM CLR 29/M03 A3017 RMK AO2 PK WND 26028/2146 SLP110 T02941033 $
 
KPVU - Provo Muni, Utah, USA
Distance from station: SSE 62mi, 100km
Updated: Mon, 06-Jul-2020 3:56pm MDT
Few Clouds
Few Clouds
 Wind from W
Wind: W 5 mph , 7 km/h
Temperature: 97°F , 36°C
Dew Point: 30°F , -1°C
Humidity: 9%
Barometer: 29.95 inHg , 1014.2 hPa
Clouds: Few Clouds
Visibility: 10 miles , 16 km
Cloud details: Few Clouds 12000 ft
2020/07/06 21:56 KPVU 062156Z 26004KT 10SM FEW120 36/M01 A2995 RMK AO2 SLP079 T03611011
KDPG - Dugway Prvg Grou, Utah, USA
Distance from station: SW 75mi, 121km
Updated: Mon, 06-Jul-2020 3:55pm MDT
Few Clouds
Few Clouds
 Wind from SW
Wind: SW 8 mph , 13 km/h
Temperature: 99°F , 37°C
Dew Point: 27°F , -3°C
Humidity: 8%
Barometer: 29.94 inHg , 1013.9 hPa
Clouds: Few Clouds
Visibility: 45 miles , 72 km
Cloud details: Few Clouds 11000 ft
2020/07/06 21:55 KDPG 062155Z 23007KT 45SM FEW110 37/M03 A2994 RMK SLP079 T03751032
 
KENV - Wendover (aut), Utah, USA
Distance from station: WSW 105mi, 169km
Updated: Mon, 06-Jul-2020 3:56pm MDT
Clear
Clear
 
Temperature: 95°F , 35°C
Dew Point: 30°F , -1°C
Humidity: 10%
Barometer: 29.91 inHg , 1012.9 hPa
Clouds: Clear
Visibility: 10 miles , 16 km
2020/07/06 21:56 KENV 062156Z AUTO 10SM CLR 35/M01 A2991 RMK AO2 SLP079 T03501006
KPUC - Price, Utah, USA
Distance from station: SE 123mi, 197km
Updated: Mon, 06-Jul-2020 3:53pm MDT
Clear
Clear
 Wind from S
Wind: S 12 mph , 19 km/h, Gust: 22 mph , 35 km/h
Temperature: 93°F , 34°C
Dew Point: 27°F , -3°C
Humidity: 9%
Barometer: 30.06 inHg , 1017.9 hPa
Clouds: Clear
Visibility: 10 miles , 16 km
2020/07/06 21:53 KPUC 062153Z AUTO 18010G19KT 10SM CLR 34/M03 A3006 RMK AO2 SLP071 T03391028
 
KPIH - Pocatello, Idaho, USA
Distance from station: NNW 130mi, 208km
Updated: Mon, 06-Jul-2020 3:53pm MDT
Clear
Clear
 Wind from NNW
Wind: NNW 8 mph , 13 km/h
Temperature: 88°F , 31°C
Dew Point: 41°F , 5°C
Humidity: 19%
Barometer: 29.98 inHg , 1015.2 hPa
Clouds: Clear
Visibility: 10 miles , 16 km
2020/07/06 21:53 KPIH 062153Z 33007KT 10SM CLR 31/05 A2998 RMK AO2 SLP107 T03060050
KBYI - Burley, Idaho, USA
Distance from station: NW 134mi, 216km
Updated: Mon, 06-Jul-2020 3:53pm MDT
Clear
Clear
 Wind from NNE
Wind: NNE 7 mph , 11 km/h
Temperature: 90°F , 32°C
Dew Point: 41°F , 5°C
Humidity: 18%
Barometer: 29.92 inHg , 1013.2 hPa
Clouds: Clear
Visibility: 10 miles , 16 km
2020/07/06 21:53 KBYI 062153Z AUTO 02006KT 10SM CLR 32/05 A2992 RMK AO2 SLP084 T03220050
 
KVEL - Vernal, Utah, USA
Distance from station: ESE 140mi, 226km
Updated: Mon, 06-Jul-2020 3:53pm MDT
Clear
Clear
 Wind from W
Wind: W 9 mph , 15 km/h
Temperature: 95°F , 35°C
Dew Point: 23°F , -5°C
Humidity: 7%
Barometer: 30.01 inHg , 1016.3 hPa
Clouds: Clear
Visibility: 10 miles , 16 km
2020/07/06 21:53 KVEL 062153Z AUTO 27008KT 10SM CLR 35/M05 A3001 RMK AO2 SLP085 T03501050
KBPI - Big Piney, Wyoming, USA
Distance from station: NE 145mi, 234km
Updated: Mon, 06-Jul-2020 3:53pm MDT
Clear
Clear
 Wind from WNW
Wind: WNW 22 mph , 35 km/h, Gust: 36 mph , 57 km/h
Temperature: 84°F , 29°C
Dew Point: 28°F , -2°C
Humidity: 13%
Barometer: 30.17 inHg , 1021.7 hPa
Clouds: Clear
Visibility: 10 miles , 16 km
2020/07/06 21:53 KBPI 062153Z AUTO 29019G31KT 10SM CLR 29/M02 A3017 RMK AO2 PK WND 30031/2115 SLP122 T02891022